sensor_id;sensor_type;location;lat;lon;timestamp;P1;durP1;ratioP1;P2;durP2;ratioP2
2201;SDS011;1107;48.654;9.250;2023-04-03T00:00:51;4.30;;;3.92;;
2201;SDS011;1107;48.654;9.250;2023-04-03T00:03:18;3.28;;;3.08;;
2201;SDS011;1107;48.654;9.250;2023-04-03T00:05:46;3.90;;;3.60;;
2201;SDS011;1107;48.654;9.250;2023-04-03T00:08:14;5.70;;;4.28;;
2201;SDS011;1107;48.654;9.250;2023-04-03T00:10:41;4.07;;;3.85;;
2201;SDS011;1107;48.654;9.250;2023-04-03T00:13:09;4.68;;;3.10;;
2201;SDS011;1107;48.654;9.250;2023-04-03T00:15:36;3.40;;;3.20;;
2201;SDS011;1107;48.654;9.250;2023-04-03T00:30:20;3.90;;;3.70;;
2201;SDS011;1107;48.654;9.250;2023-04-03T08:56:44;3.65;;;3.45;;
2201;SDS011;1107;48.654;9.250;2023-04-03T08:59:13;3.47;;;3.27;;
2201;SDS011;1107;48.654;9.250;2023-04-03T09:01:45;5.40;;;2.90;;
2201;SDS011;1107;48.654;9.250;2023-04-03T09:04:13;3.40;;;3.20;;
2201;SDS011;1107;48.654;9.250;2023-04-03T09:06:42;3.17;;;2.87;;
2201;SDS011;1107;48.654;9.250;2023-04-03T09:09:15;4.03;;;3.10;;
2201;SDS011;1107;48.654;9.250;2023-04-03T09:11:51;3.83;;;3.63;;
2201;SDS011;1107;48.654;9.250;2023-04-03T09:14:28;3.27;;;3.07;;
2201;SDS011;1107;48.654;9.250;2023-04-03T09:17:02;3.57;;;3.37;;
2201;SDS011;1107;48.654;9.250;2023-04-03T09:19:34;2.93;;;2.60;;
2201;SDS011;1107;48.654;9.250;2023-04-03T09:22:11;3.93;;;3.63;;
2201;SDS011;1107;48.654;9.250;2023-04-03T09:24:42;6.85;;;3.45;;
2201;SDS011;1107;48.654;9.250;2023-04-03T09:27:11;3.22;;;3.03;;
2201;SDS011;1107;48.654;9.250;2023-04-03T09:29:41;3.90;;;3.60;;
2201;SDS011;1107;48.654;9.250;2023-04-03T09:34:57;3.55;;;3.35;;
2201;SDS011;1107;48.654;9.250;2023-04-03T09:37:38;3.38;;;3.17;;
2201;SDS011;1107;48.654;9.250;2023-04-03T09:43:24;3.30;;;3.10;;
2201;SDS011;1107;48.654;9.250;2023-04-03T09:45:54;3.23;;;3.03;;
2201;SDS011;1107;48.654;9.250;2023-04-03T09:48:23;3.20;;;2.90;;
2201;SDS011;1107;48.654;9.250;2023-04-03T09:50:56;3.23;;;3.03;;
2201;SDS011;1107;48.654;9.250;2023-04-03T09:53:26;3.05;;;2.75;;
2201;SDS011;1107;48.654;9.250;2023-04-03T09:55:59;3.75;;;2.78;;
2201;SDS011;1107;48.654;9.250;2023-04-03T09:58:28;4.35;;;2.33;;
2201;SDS011;1107;48.654;9.250;2023-04-03T10:01:00;3.30;;;3.10;;
2201;SDS011;1107;48.654;9.250;2023-04-03T10:03:28;3.05;;;2.85;;
2201;SDS011;1107;48.654;9.250;2023-04-03T10:05:57;6.38;;;2.90;;
2201;SDS011;1107;48.654;9.250;2023-04-03T10:08:26;2.88;;;2.67;;
2201;SDS011;1107;48.654;9.250;2023-04-03T10:11:09;2.78;;;2.58;;
2201;SDS011;1107;48.654;9.250;2023-04-03T10:13:50;3.95;;;3.00;;
2201;SDS011;1107;48.654;9.250;2023-04-03T10:16:25;2.60;;;2.40;;
2201;SDS011;1107;48.654;9.250;2023-04-03T10:19:02;2.28;;;2.08;;
2201;SDS011;1107;48.654;9.250;2023-04-03T10:21:38;2.78;;;2.58;;
2201;SDS011;1107;48.654;9.250;2023-04-03T10:24:11;2.40;;;2.20;;
2201;SDS011;1107;48.654;9.250;2023-04-03T10:26:48;2.50;;;2.30;;
2201;SDS011;1107;48.654;9.250;2023-04-03T10:29:29;2.10;;;1.90;;
2201;SDS011;1107;48.654;9.250;2023-04-03T10:32:11;2.63;;;2.40;;
2201;SDS011;1107;48.654;9.250;2023-04-03T10:34:56;2.43;;;2.23;;
2201;SDS011;1107;48.654;9.250;2023-04-03T10:37:29;3.13;;;2.70;;
2201;SDS011;1107;48.654;9.250;2023-04-03T10:40:20;2.30;;;2.10;;
2201;SDS011;1107;48.654;9.250;2023-04-03T10:42:57;2.60;;;2.40;;
2201;SDS011;1107;48.654;9.250;2023-04-03T10:45:30;2.63;;;2.43;;
2201;SDS011;1107;48.654;9.250;2023-04-03T10:48:13;2.10;;;2.00;;
2201;SDS011;1107;48.654;9.250;2023-04-03T10:50:49;2.07;;;1.97;;
2201;SDS011;1107;48.654;9.250;2023-04-03T10:53:34;2.47;;;2.28;;
2201;SDS011;1107;48.654;9.250;2023-04-03T10:56:08;2.53;;;2.33;;
2201;SDS011;1107;48.654;9.250;2023-04-03T10:58:43;2.38;;;2.17;;
2201;SDS011;1107;48.654;9.250;2023-04-03T11:01:12;2.80;;;2.60;;
2201;SDS011;1107;48.654;9.250;2023-04-03T11:03:44;5.00;;;3.00;;
2201;SDS011;1107;48.654;9.250;2023-04-03T11:06:16;2.80;;;2.60;;
2201;SDS011;1107;48.654;9.250;2023-04-03T11:08:46;4.27;;;3.83;;
2201;SDS011;1107;48.654;9.250;2023-04-03T11:11:20;3.05;;;2.80;;
2201;SDS011;1107;48.654;9.250;2023-04-03T11:13:53;2.93;;;2.50;;
2201;SDS011;1107;48.654;9.250;2023-04-03T11:16:24;2.85;;;2.65;;
2201;SDS011;1107;48.654;9.250;2023-04-03T11:18:56;3.10;;;2.80;;
2201;SDS011;1107;48.654;9.250;2023-04-03T11:21:27;5.17;;;3.40;;
2201;SDS011;1107;48.654;9.250;2023-04-03T11:23:59;3.73;;;2.63;;
2201;SDS011;1107;48.654;9.250;2023-04-03T11:26:31;2.45;;;2.25;;
2201;SDS011;1107;48.654;9.250;2023-04-03T11:29:04;2.45;;;2.25;;
2201;SDS011;1107;48.654;9.250;2023-04-03T11:31:38;4.18;;;2.50;;
2201;SDS011;1107;48.654;9.250;2023-04-03T11:34:21;3.40;;;3.10;;
2201;SDS011;1107;48.654;9.250;2023-04-03T11:36:59;2.35;;;2.15;;
2201;SDS011;1107;48.654;9.250;2023-04-03T11:39:28;2.45;;;2.25;;
2201;SDS011;1107;48.654;9.250;2023-04-03T11:42:12;2.22;;;2.00;;
2201;SDS011;1107;48.654;9.250;2023-04-03T11:44:41;2.63;;;2.40;;
2201;SDS011;1107;48.654;9.250;2023-04-03T11:47:09;2.10;;;2.00;;
2201;SDS011;1107;48.654;9.250;2023-04-03T11:58:42;2.60;;;2.25;;
2201;SDS011;1107;48.654;9.250;2023-04-03T12:01:44;2.17;;;1.98;;
2201;SDS011;1107;48.654;9.250;2023-04-03T12:04:13;2.03;;;1.83;;
2201;SDS011;1107;48.654;9.250;2023-04-03T12:12:42;3.47;;;2.17;;
2201;SDS011;1107;48.654;9.250;2023-04-03T12:21:23;2.10;;;2.00;;
2201;SDS011;1107;48.654;9.250;2023-04-03T12:24:26;2.70;;;2.50;;
